sensor_id;sensor_type;location;lat;lon;timestamp;P1;durP1;ratioP1;P2;durP2;ratioP2
25649;SDS011;13505;45.196;5.696;2024-03-02T05:34:19;9.82;;;4.75;;
25649;SDS011;13505;45.196;5.696;2024-03-02T05:39:09;10.60;;;5.70;;
25649;SDS011;13505;45.196;5.696;2024-03-02T05:44:00;12.02;;;6.53;;
25649;SDS011;13505;45.196;5.696;2024-03-02T05:48:51;11.65;;;6.07;;
25649;SDS011;13505;45.196;5.696;2024-03-02T05:53:41;11.90;;;6.72;;
25649;SDS011;13505;45.196;5.696;2024-03-02T05:58:32;12.15;;;7.15;;
25649;SDS011;13505;45.196;5.696;2024-03-02T06:03:40;11.75;;;6.65;;
25649;SDS011;13505;45.196;5.696;2024-03-02T06:08:31;11.35;;;7.25;;
25649;SDS011;13505;45.196;5.696;2024-03-02T06:13:21;12.68;;;6.80;;
25649;SDS011;13505;45.196;5.696;2024-03-02T06:18:11;12.25;;;7.65;;
25649;SDS011;13505;45.196;5.696;2024-03-02T06:23:02;10.95;;;6.70;;
25649;SDS011;13505;45.196;5.696;2024-03-02T06:27:52;12.10;;;6.90;;
25649;SDS011;13505;45.196;5.696;2024-03-02T06:32:42;11.13;;;6.43;;
25649;SDS011;13505;45.196;5.696;2024-03-02T06:37:33;11.48;;;6.70;;
25649;SDS011;13505;45.196;5.696;2024-03-02T06:42:23;14.00;;;7.30;;
25649;SDS011;13505;45.196;5.696;2024-03-02T06:47:14;13.02;;;7.55;;
25649;SDS011;13505;45.196;5.696;2024-03-02T06:52:06;12.02;;;7.13;;
25649;SDS011;13505;45.196;5.696;2024-03-02T06:56:56;11.68;;;7.28;;
25649;SDS011;13505;45.196;5.696;2024-03-02T07:01:47;10.68;;;6.53;;
25649;SDS011;13505;45.196;5.696;2024-03-02T07:06:38;14.05;;;7.13;;
25649;SDS011;13505;45.196;5.696;2024-03-02T07:11:29;17.00;;;10.07;;
25649;SDS011;13505;45.196;5.696;2024-03-02T07:16:19;12.75;;;7.55;;
25649;SDS011;13505;45.196;5.696;2024-03-02T07:21:19;13.90;;;7.30;;
25649;SDS011;13505;45.196;5.696;2024-03-02T07:26:10;10.85;;;6.75;;
25649;SDS011;13505;45.196;5.696;2024-03-02T07:31:01;14.75;;;6.72;;
25649;SDS011;13505;45.196;5.696;2024-03-02T07:35:56;10.55;;;6.82;;
25649;SDS011;13505;45.196;5.696;2024-03-02T07:40:47;12.68;;;7.47;;
25649;SDS011;13505;45.196;5.696;2024-03-02T07:45:40;14.20;;;6.60;;
25649;SDS011;13505;45.196;5.696;2024-03-02T07:50:30;11.00;;;6.43;;
25649;SDS011;13505;45.196;5.696;2024-03-02T07:55:21;9.45;;;6.43;;
25649;SDS011;13505;45.196;5.696;2024-03-02T08:00:11;9.00;;;6.57;;
25649;SDS011;13505;45.196;5.696;2024-03-02T08:05:02;11.73;;;6.65;;
25649;SDS011;13505;45.196;5.696;2024-03-02T08:09:52;11.20;;;6.65;;
25649;SDS011;13505;45.196;5.696;2024-03-02T08:14:43;10.77;;;7.27;;
25649;SDS011;13505;45.196;5.696;2024-03-02T08:19:33;12.52;;;7.55;;
25649;SDS011;13505;45.196;5.696;2024-03-02T08:24:23;15.52;;;6.53;;
25649;SDS011;13505;45.196;5.696;2024-03-02T08:29:13;8.88;;;6.07;;
25649;SDS011;13505;45.196;5.696;2024-03-02T08:34:04;9.38;;;5.10;;
25649;SDS011;13505;45.196;5.696;2024-03-02T08:38:54;8.10;;;5.13;;
25649;SDS011;13505;45.196;5.696;2024-03-02T08:43:44;10.23;;;6.07;;
25649;SDS011;13505;45.196;5.696;2024-03-02T08:48:35;8.68;;;5.00;;
25649;SDS011;13505;45.196;5.696;2024-03-02T08:53:25;8.45;;;4.30;;
25649;SDS011;13505;45.196;5.696;2024-03-02T08:58:16;6.90;;;4.35;;
25649;SDS011;13505;45.196;5.696;2024-03-02T09:03:06;7.20;;;3.88;;
25649;SDS011;13505;45.196;5.696;2024-03-02T09:07:57;8.70;;;4.70;;
25649;SDS011;13505;45.196;5.696;2024-03-02T09:12:47;6.90;;;4.82;;
25649;SDS011;13505;45.196;5.696;2024-03-02T09:17:38;5.82;;;3.80;;
25649;SDS011;13505;45.196;5.696;2024-03-02T09:22:28;9.07;;;4.53;;
25649;SDS011;13505;45.196;5.696;2024-03-02T09:27:18;6.28;;;4.10;;
25649;SDS011;13505;45.196;5.696;2024-03-02T09:32:12;6.47;;;3.58;;
25649;SDS011;13505;45.196;5.696;2024-03-02T09:37:03;5.13;;;3.33;;
25649;SDS011;13505;45.196;5.696;2024-03-02T09:41:54;4.97;;;3.20;;
25649;SDS011;13505;45.196;5.696;2024-03-02T09:46:48;6.15;;;3.70;;
25649;SDS011;13505;45.196;5.696;2024-03-02T09:51:39;5.45;;;3.30;;
25649;SDS011;13505;45.196;5.696;2024-03-02T09:56:30;7.28;;;3.40;;
25649;SDS011;13505;45.196;5.696;2024-03-02T10:01:21;6.38;;;4.20;;
25649;SDS011;13505;45.196;5.696;2024-03-02T10:06:20;5.13;;;3.42;;
25649;SDS011;13505;45.196;5.696;2024-03-02T10:11:33;4.10;;;3.05;;
25649;SDS011;13505;45.196;5.696;2024-03-02T10:16:26;6.35;;;3.42;;
25649;SDS011;13505;45.196;5.696;2024-03-02T10:21:17;8.52;;;3.63;;
25649;SDS011;13505;45.196;5.696;2024-03-02T10:26:16;6.15;;;3.95;;
25649;SDS011;13505;45.196;5.696;2024-03-02T10:31:08;5.97;;;3.60;;
25649;SDS011;13505;45.196;5.696;2024-03-02T10:35:58;5.47;;;3.70;;
25649;SDS011;13505;45.196;5.696;2024-03-02T10:40:49;5.38;;;3.70;;
25649;SDS011;13505;45.196;5.696;2024-03-02T10:45:39;5.22;;;3.28;;
25649;SDS011;13505;45.196;5.696;2024-03-02T10:50:30;4.83;;;2.93;;
25649;SDS011;13505;45.196;5.696;2024-03-02T10:55:20;6.43;;;3.95;;
25649;SDS011;13505;45.196;5.696;2024-03-02T11:00:12;8.65;;;3.50;;
25649;SDS011;13505;45.196;5.696;2024-03-02T11:05:04;4.97;;;3.30;;
25649;SDS011;13505;45.196;5.696;2024-03-02T11:09:59;8.30;;;2.67;;
25649;SDS011;13505;45.196;5.696;2024-03-02T11:14:58;4.43;;;2.83;;
25649;SDS011;13505;45.196;5.696;2024-03-02T11:19:49;4.38;;;2.78;;
25649;SDS011;13505;45.196;5.696;2024-03-02T11:24:47;5.10;;;2.80;;
25649;SDS011;13505;45.196;5.696;2024-03-02T11:34:35;2.45;;;1.98;;
25649;SDS011;13505;45.196;5.696;2024-03-02T11:39:26;3.53;;;2.03;;
25649;SDS011;13505;45.196;5.696;2024-03-02T11:44:17;2.85;;;1.60;;
25649;SDS011;13505;45.196;5.696;2024-03-02T11:49:07;4.85;;;2.13;;
25649;SDS011;13505;45.196;5.696;2024-03-02T11:53:59;2.60;;;1.70;;
25649;SDS011;13505;45.196;5.696;2024-03-02T11:58:53;3.05;;;1.40;;
25649;SDS011;13505;45.196;5.696;2024-03-02T12:03:43;4.60;;;2.10;;
25649;SDS011;13505;45.196;5.696;2024-03-02T12:08:34;4.77;;;2.20;;
25649;SDS011;13505;45.196;5.696;2024-03-02T12:13:24;7.30;;;3.10;;
25649;SDS011;13505;45.196;5.696;2024-03-02T12:18:15;3.75;;;1.90;;
25649;SDS011;13505;45.196;5.696;2024-03-02T12:23:05;5.30;;;1.33;;
25649;SDS011;13505;45.196;5.696;2024-03-02T12:27:56;1.90;;;1.35;;
25649;SDS011;13505;45.196;5.696;2024-03-02T12:32:49;4.38;;;1.98;;
25649;SDS011;13505;45.196;5.696;2024-03-02T12:37:43;2.58;;;1.42;;
25649;SDS011;13505;45.196;5.696;2024-03-02T12:42:37;1.02;;;0.40;;
25649;SDS011;13505;45.196;5.696;2024-03-02T12:47:28;0.93;;;0.30;;
25649;SDS011;13505;45.196;5.696;2024-03-02T12:52:19;2.15;;;0.50;;
25649;SDS011;13505;45.196;5.696;2024-03-02T12:57:09;0.90;;;0.33;;
25649;SDS011;13505;45.196;5.696;2024-03-02T13:01:59;3.58;;;0.50;;
25649;SDS011;13505;45.196;5.696;2024-03-02T13:06:52;0.52;;;0.40;;
25649;SDS011;13505;45.196;5.696;2024-03-02T13:11:43;0.60;;;0.22;;
25649;SDS011;13505;45.196;5.696;2024-03-02T13:16:38;3.35;;;0.40;;
25649;SDS011;13505;45.196;5.696;2024-03-02T13:21:29;0.52;;;0.30;;
25649;SDS011;13505;45.196;5.696;2024-03-02T13:26:19;1.00;;;0.50;;
25649;SDS011;13505;45.196;5.696;2024-03-02T13:31:10;1.05;;;0.50;;
25649;SDS011;13505;45.196;5.696;2024-03-02T13:36:00;1.33;;;0.60;;
25649;SDS011;13505;45.196;5.696;2024-03-02T13:40:51;2.83;;;1.60;;
25649;SDS011;13505;45.196;5.696;2024-03-02T13:45:42;1.00;;;0.73;;
25649;SDS011;13505;45.196;5.696;2024-03-02T13:50:33;1.77;;;0.90;;
25649;SDS011;13505;45.196;5.696;2024-03-02T13:55:23;2.20;;;0.97;;
25649;SDS011;13505;45.196;5.696;2024-03-02T14:00:14;5.33;;;0.50;;
25649;SDS011;13505;45.196;5.696;2024-03-02T14:05:05;2.13;;;0.80;;
25649;SDS011;13505;45.196;5.696;2024-03-02T14:09:56;0.70;;;0.60;;
25649;SDS011;13505;45.196;5.696;2024-03-02T14:14:47;4.95;;;2.33;;
25649;SDS011;13505;45.196;5.696;2024-03-02T14:19:37;4.80;;;1.98;;
25649;SDS011;13505;45.196;5.696;2024-03-02T14:24:27;5.72;;;0.70;;
25649;SDS011;13505;45.196;5.696;2024-03-02T14:29:19;1.58;;;0.65;;
25649;SDS011;13505;45.196;5.696;2024-03-02T14:34:09;3.33;;;1.90;;
25649;SDS011;13505;45.196;5.696;2024-03-02T14:38:59;3.65;;;0.93;;
25649;SDS011;13505;45.196;5.696;2024-03-02T14:43:50;4.82;;;1.30;;
25649;SDS011;13505;45.196;5.696;2024-03-02T14:48:40;18.10;;;1.42;;
25649;SDS011;13505;45.196;5.696;2024-03-02T14:53:31;3.63;;;0.90;;
25649;SDS011;13505;45.196;5.696;2024-03-02T14:58:21;3.47;;;0.90;;
25649;SDS011;13505;45.196;5.696;2024-03-02T15:03:11;1.48;;;0.85;;
25649;SDS011;13505;45.196;5.696;2024-03-02T15:08:02;3.63;;;1.00;;
25649;SDS011;13505;45.196;5.696;2024-03-02T15:12:54;3.67;;;1.65;;
25649;SDS011;13505;45.196;5.696;2024-03-02T15:17:44;1.97;;;0.70;;
25649;SDS011;13505;45.196;5.696;2024-03-02T15:22:34;2.30;;;1.00;;
25649;SDS011;13505;45.196;5.696;2024-03-02T15:27:25;4.22;;;0.80;;
25649;SDS011;13505;45.196;5.696;2024-03-02T15:32:17;2.67;;;0.65;;
25649;SDS011;13505;45.196;5.696;2024-03-02T15:37:07;15.30;;;1.13;;
25649;SDS011;13505;45.196;5.696;2024-03-02T15:41:58;2.20;;;0.87;;
25649;SDS011;13505;45.196;5.696;2024-03-02T15:46:48;2.75;;;0.70;;
25649;SDS011;13505;45.196;5.696;2024-03-02T15:51:38;1.20;;;0.50;;
25649;SDS011;13505;45.196;5.696;2024-03-02T15:56:33;1.10;;;0.60;;
25649;SDS011;13505;45.196;5.696;2024-03-02T16:01:24;1.40;;;0.70;;
25649;SDS011;13505;45.196;5.696;2024-03-02T16:06:14;1.17;;;0.60;;
25649;SDS011;13505;45.196;5.696;2024-03-02T16:11:05;2.95;;;0.50;;
25649;SDS011;13505;45.196;5.696;2024-03-02T16:15:55;1.40;;;0.50;;
25649;SDS011;13505;45.196;5.696;2024-03-02T16:20:45;3.45;;;0.88;;
25649;SDS011;13505;45.196;5.696;2024-03-02T16:25:37;3.83;;;1.05;;
25649;SDS011;13505;45.196;5.696;2024-03-02T16:30:31;5.32;;;0.90;;
25649;SDS011;13505;45.196;5.696;2024-03-02T16:35:21;2.08;;;0.90;;
25649;SDS011;13505;45.196;5.696;2024-03-02T16:40:11;5.32;;;1.08;;
25649;SDS011;13505;45.196;5.696;2024-03-02T16:45:03;3.15;;;0.70;;
25649;SDS011;13505;45.196;5.696;2024-03-02T16:49:54;5.45;;;1.08;;
25649;SDS011;13505;45.196;5.696;2024-03-02T16:54:48;6.40;;;1.30;;
25649;SDS011;13505;45.196;5.696;2024-03-02T16:59:40;4.50;;;1.40;;
25649;SDS011;13505;45.196;5.696;2024-03-02T17:04:30;8.60;;;1.10;;
25649;SDS011;13505;45.196;5.696;2024-03-02T17:09:20;2.20;;;0.90;;
25649;SDS011;13505;45.196;5.696;2024-03-02T17:14:11;3.60;;;1.20;;
25649;SDS011;13505;45.196;5.696;2024-03-02T17:19:02;2.33;;;1.10;;
25649;SDS011;13505;45.196;5.696;2024-03-02T17:23:52;4.35;;;1.23;;
25649;SDS011;13505;45.196;5.696;2024-03-02T17:28:42;2.03;;;1.10;;
25649;SDS011;13505;45.196;5.696;2024-03-02T17:33:34;5.15;;;1.13;;
25649;SDS011;13505;45.196;5.696;2024-03-02T17:38:25;1.90;;;0.95;;
25649;SDS011;13505;45.196;5.696;2024-03-02T17:43:15;3.58;;;1.25;;
25649;SDS011;13505;45.196;5.696;2024-03-02T17:48:06;3.25;;;1.35;;
25649;SDS011;13505;45.196;5.696;2024-03-02T17:52:57;3.35;;;1.00;;
25649;SDS011;13505;45.196;5.696;2024-03-02T17:57:48;4.47;;;1.10;;
25649;SDS011;13505;45.196;5.696;2024-03-02T18:02:39;3.83;;;1.10;;
25649;SDS011;13505;45.196;5.696;2024-03-02T18:07:30;4.43;;;1.60;;
25649;SDS011;13505;45.196;5.696;2024-03-02T18:12:20;2.67;;;1.20;;
25649;SDS011;13505;45.196;5.696;2024-03-02T18:17:11;3.08;;;0.93;;
25649;SDS011;13505;45.196;5.696;2024-03-02T18:22:02;2.65;;;1.30;;
25649;SDS011;13505;45.196;5.696;2024-03-02T18:26:52;2.65;;;1.17;;
25649;SDS011;13505;45.196;5.696;2024-03-02T18:31:43;2.72;;;1.02;;
25649;SDS011;13505;45.196;5.696;2024-03-02T18:36:33;2.95;;;1.17;;
25649;SDS011;13505;45.196;5.696;2024-03-02T18:41:24;2.25;;;1.10;;
25649;SDS011;13505;45.196;5.696;2024-03-02T18:46:14;3.63;;;1.17;;
25649;SDS011;13505;45.196;5.696;2024-03-02T18:51:06;2.80;;;1.30;;
25649;SDS011;13505;45.196;5.696;2024-03-02T18:55:57;2.33;;;1.10;;
25649;SDS011;13505;45.196;5.696;2024-03-02T19:00:47;3.53;;;1.20;;
25649;SDS011;13505;45.196;5.696;2024-03-02T19:05:38;3.80;;;1.23;;
25649;SDS011;13505;45.196;5.696;2024-03-02T19:10:28;3.88;;;1.00;;
25649;SDS011;13505;45.196;5.696;2024-03-02T19:15:18;1.52;;;1.00;;
25649;SDS011;13505;45.196;5.696;2024-03-02T19:20:08;7.32;;;1.20;;
25649;SDS011;13505;45.196;5.696;2024-03-02T19:25:00;5.40;;;1.13;;
25649;SDS011;13505;45.196;5.696;2024-03-02T19:29:51;1.77;;;1.20;;
25649;SDS011;13505;45.196;5.696;2024-03-02T19:34:41;8.10;;;2.00;;
25649;SDS011;13505;45.196;5.696;2024-03-02T19:39:32;3.97;;;1.50;;
25649;SDS011;13505;45.196;5.696;2024-03-02T19:44:25;3.83;;;1.30;;
25649;SDS011;13505;45.196;5.696;2024-03-02T19:49:21;3.42;;;1.27;;
25649;SDS011;13505;45.196;5.696;2024-03-02T19:54:14;4.15;;;1.40;;
25649;SDS011;13505;45.196;5.696;2024-03-02T19:59:04;1.63;;;1.20;;
25649;SDS011;13505;45.196;5.696;2024-03-02T20:03:55;3.87;;;1.20;;
25649;SDS011;13505;45.196;5.696;2024-03-02T20:08:45;3.63;;;1.40;;
25649;SDS011;13505;45.196;5.696;2024-03-02T20:13:35;3.33;;;1.50;;
25649;SDS011;13505;45.196;5.696;2024-03-02T20:18:26;2.67;;;1.37;;
25649;SDS011;13505;45.196;5.696;2024-03-02T20:23:16;3.45;;;1.33;;
25649;SDS011;13505;45.196;5.696;2024-03-02T20:28:07;2.97;;;1.15;;
25649;SDS011;13505;45.196;5.696;2024-03-02T20:32:57;4.07;;;1.20;;
25649;SDS011;13505;45.196;5.696;2024-03-02T20:37:48;3.80;;;1.30;;
25649;SDS011;13505;45.196;5.696;2024-03-02T20:42:38;2.40;;;1.20;;
25649;SDS011;13505;45.196;5.696;2024-03-02T20:47:28;2.85;;;1.30;;
25649;SDS011;13505;45.196;5.696;2024-03-02T20:52:19;4.85;;;1.40;;
25649;SDS011;13505;45.196;5.696;2024-03-02T20:57:10;2.03;;;1.20;;
25649;SDS011;13505;45.196;5.696;2024-03-02T21:02:01;2.37;;;1.33;;
25649;SDS011;13505;45.196;5.696;2024-03-02T21:06:52;3.28;;;1.15;;
25649;SDS011;13505;45.196;5.696;2024-03-02T21:11:43;1.87;;;0.87;;
25649;SDS011;13505;45.196;5.696;2024-03-02T21:16:36;1.67;;;0.93;;
25649;SDS011;13505;45.196;5.696;2024-03-02T21:21:27;3.30;;;1.20;;
25649;SDS011;13505;45.196;5.696;2024-03-02T21:26:18;2.15;;;1.08;;
25649;SDS011;13505;45.196;5.696;2024-03-02T21:31:13;4.23;;;1.17;;
25649;SDS011;13505;45.196;5.696;2024-03-02T21:36:04;4.43;;;1.10;;
25649;SDS011;13505;45.196;5.696;2024-03-02T21:40:55;2.63;;;1.20;;
25649;SDS011;13505;45.196;5.696;2024-03-02T21:45:45;2.60;;;0.98;;
25649;SDS011;13505;45.196;5.696;2024-03-02T21:50:35;3.03;;;1.15;;
25649;SDS011;13505;45.196;5.696;2024-03-02T21:55:26;3.17;;;1.20;;
25649;SDS011;13505;45.196;5.696;2024-03-02T22:00:17;6.30;;;1.25;;
25649;SDS011;13505;45.196;5.696;2024-03-02T22:05:07;4.03;;;1.05;;
25649;SDS011;13505;45.196;5.696;2024-03-02T22:09:58;2.25;;;0.88;;
25649;SDS011;13505;45.196;5.696;2024-03-02T22:14:48;2.05;;;0.80;;
25649;SDS011;13505;45.196;5.696;2024-03-02T22:19:38;1.55;;;0.70;;
25649;SDS011;13505;45.196;5.696;2024-03-02T22:24:29;2.25;;;1.02;;
25649;SDS011;13505;45.196;5.696;2024-03-02T22:29:19;3.85;;;0.77;;
25649;SDS011;13505;45.196;5.696;2024-03-02T22:34:10;1.05;;;0.50;;
25649;SDS011;13505;45.196;5.696;2024-03-02T22:39:00;1.98;;;0.90;;
25649;SDS011;13505;45.196;5.696;2024-03-02T22:43:51;1.52;;;0.65;;
25649;SDS011;13505;45.196;5.696;2024-03-02T22:48:42;1.05;;;0.60;;
25649;SDS011;13505;45.196;5.696;2024-03-02T22:53:32;2.45;;;0.50;;
25649;SDS011;13505;45.196;5.696;2024-03-02T22:58:23;0.95;;;0.50;;
